This is the latest recevied weather packets stored in our database for station/object KB3CAT. If no packets are shown the sender has not sent any weather packets the latest 10 day(s).
| Time | Temp. | Humidity | Pressure | Rain* | Wind** | Luminosity | Snow |
|---|---|---|---|---|---|---|---|
| 1777722795 | 6.11° C | 75% | 1014.1 hPa | 0 mm | - | - | - |
| 1777720395 | 5.56° C | 77% | 1014 hPa | 0 mm | - | - | - |
| 1777719796 | 5.56° C | 77% | 1013.9 hPa | 0 mm | - | - | - |
| 1777717996 | 5° C | 78% | 1013.9 hPa | 0 mm | - | - | - |
| 1777716796 | 5.56° C | 77% | 1013.9 hPa | 0 mm | - | - | - |
| 1777716196 | 5.56° C | 76% | 1013.7 hPa | 0 mm | - | - | - |
| 1777713195 | 7.22° C | 74% | 1013.4 hPa | 0 mm | - | - | - |
| 1777712016 | 7.78° C | 77% | 1013.3 hPa | 0 mm | - | - | - |
| 1777708396 | 7.78° C | 75% | 1012.7 hPa | 0 mm | - | - | - |
| 1777698196 | 8.89° C | 87% | 1012.4 hPa | 0.25 mm | - | - | - |
| 1777697596 | 8.89° C | 88% | 1012.5 hPa | 0.25 mm | - | - | - |
| 1777692195 | 9.44° C | 85% | 1012.2 hPa | 0 mm | - | - | - |
| 1777691596 | 9.44° C | 85% | 1012.2 hPa | 0 mm | - | - | - |
| 1777685016 | 9.44° C | 86% | 1011.5 hPa | 0 mm | - | - | - |
| 1777679595 | 12.22° C | 80% | 1009.8 hPa | 0 mm | - | - | - |
| 1777678396 | 12.78° C | 80% | 1009.7 hPa | 0.25 mm | - | - | - |
| 1777676596 | 12.78° C | 74% | 1009.7 hPa | 0.25 mm | - | - | - |
| 1777672996 | 15.56° C | 50% | 1009.8 hPa | 0 mm | - | - | - |
| 1777671816 | 15.56° C | 53% | 1009.4 hPa | 0 mm | - | - | - |
| 1777671196 | 15.56° C | 48% | 1009.5 hPa | 0 mm | - | - | - |
| 1777668196 | 16.11° C | 45% | 1009.4 hPa | 0 mm | - | - | - |
| 1777666396 | 16.67° C | 43% | 1009.3 hPa | 0 mm | - | - | - |
| 1777665795 | 17.22° C | 43% | 1009.6 hPa | 0 mm | - | - | - |
| 1777663996 | 16.11° C | 46% | 1009.9 hPa | 0 mm | - | - | - |
| 1777660996 | 16.11° C | 45% | 1010.8 hPa | 0 mm | - | - | - |
* Rain latest hour (hover to see other rain measurements)
** Current wind speed in m/s (hover to see current wind gust speed)